Terminal Aerodrome Forecast
Issued by NWS

Home | Current Version | Previous Version | Text Only | Print | Product List | Glossary On
Versions: 1 2 3 4 5 6 7 8 9 10 11 12 13 14 15 16
000
FTUS45 KVEF 021600 AAB
TAFEED
TAF AMD
KEED 021605Z 0216/0312 19007KT P6SM VCSH SCT030 OVC050
     FM021800 19006KT P6SM SCT020 BKN040 OVC090
     FM022100 21012G22KT P6SM SCT050 BKN090
     FM030200 22005KT P6SM FEW050 SCT090=

USA.gov is the U.S. government's official web portal to all federal, state and local government web resources and services.